Decoded Metar for KRKS (ROCK SPRINGS in WY, USA) (IATA:RKS) | Meteo·Mobile Aviation Weather
aviador You're here:

KRKS Decoded Metar

ROCK SPRINGS in WY, USA
Report Time2018-12-16 10:54:00
UTC Time2018-12-16 11:02:34
Flight Rules vfr VFR
Wind080° at 05 kt
W.Decomp.*RWY 09: 4.6 kt HW 2 kt LCW
RWY 03: 4.0 kt HW 3.0 kt RCW
W.Rank080° ranks 20
Current wind is below 080° avg. (6.9)
Visibility9999 m
Phenomena:N/A
Clouds:N/A
Expected CloudBase > 1,600 ft AGL from Temp-Dew spread
CeilingNone
Temp-8°C (ISA -10)
Dew Point-12°C (73% RH)
AAT-13.0°C
QNH1027 hPa
Density Alt5,164 ft
Elevation6,759 ft
Report Wrong Elevation
Raw Report
KRKS 161054Z AUTO 08005KT 10SM CLR M08/M12 A3033 RMK AO2 SLP307
T10781117=

Extra information for KRKS:More info

Metar Taf Metar & Taf Last 4 Metars F.Rules Stats Wind Profile Meteogram Temp Stats Airport Information Weather charts Add Link Nearby VenuesMetar ALERT Operation Metar Decoded Social comments

AIRNAV info for KRKS